sensor_id;sensor_type;location;lat;lon;timestamp;P1;durP1;ratioP1;P2;durP2;ratioP2
32894;SDS011;19251;49.484;8.260;2022-12-01T00:00:18;17.98;;;10.57;;
32894;SDS011;19251;49.484;8.260;2022-12-01T00:05:21;19.77;;;11.10;;
32894;SDS011;19251;49.484;8.260;2022-12-01T00:10:24;18.20;;;10.60;;
32894;SDS011;19251;49.484;8.260;2022-12-01T00:15:34;17.00;;;10.25;;
32894;SDS011;19251;49.484;8.260;2022-12-01T00:20:37;21.10;;;11.90;;
32894;SDS011;19251;49.484;8.260;2022-12-01T00:25:40;17.00;;;10.00;;
32894;SDS011;19251;49.484;8.260;2022-12-01T00:30:42;22.35;;;12.48;;
32894;SDS011;19251;49.484;8.260;2022-12-01T00:35:45;19.42;;;12.73;;
32894;SDS011;19251;49.484;8.260;2022-12-01T00:40:48;20.75;;;12.00;;
32894;SDS011;19251;49.484;8.260;2022-12-01T00:45:50;21.73;;;13.43;;
32894;SDS011;19251;49.484;8.260;2022-12-01T00:55:55;20.37;;;14.10;;
32894;SDS011;19251;49.484;8.260;2022-12-01T01:00:58;19.00;;;11.80;;
32894;SDS011;19251;49.484;8.260;2022-12-01T01:06:05;21.70;;;13.90;;
32894;SDS011;19251;49.484;8.260;2022-12-01T01:11:09;24.60;;;14.00;;
32894;SDS011;19251;49.484;8.260;2022-12-01T01:16:14;21.60;;;14.63;;
32894;SDS011;19251;49.484;8.260;2022-12-01T01:21:24;22.07;;;13.23;;
32894;SDS011;19251;49.484;8.260;2022-12-01T01:26:28;27.10;;;13.80;;
32894;SDS011;19251;49.484;8.260;2022-12-01T01:31:32;21.67;;;13.70;;
32894;SDS011;19251;49.484;8.260;2022-12-01T01:36:35;18.60;;;12.50;;
32894;SDS011;19251;49.484;8.260;2022-12-01T01:41:37;20.83;;;13.32;;
32894;SDS011;19251;49.484;8.260;2022-12-01T01:46:39;22.08;;;13.73;;
32894;SDS011;19251;49.484;8.260;2022-12-01T01:51:51;24.33;;;14.70;;
32894;SDS011;19251;49.484;8.260;2022-12-01T01:56:54;22.60;;;14.20;;
32894;SDS011;19251;49.484;8.260;2022-12-01T02:02:05;27.65;;;15.10;;
32894;SDS011;19251;49.484;8.260;2022-12-01T02:07:10;22.70;;;14.30;;
32894;SDS011;19251;49.484;8.260;2022-12-01T02:28:53;25.07;;;16.37;;
32894;SDS011;19251;49.484;8.260;2022-12-01T02:34:09;27.80;;;16.87;;
32894;SDS011;19251;49.484;8.260;2022-12-01T02:44:30;24.70;;;16.25;;
32894;SDS011;19251;49.484;8.260;2022-12-01T02:49:36;31.85;;;18.45;;
32894;SDS011;19251;49.484;8.260;2022-12-01T02:54:42;29.10;;;17.33;;
32894;SDS011;19251;49.484;8.260;2022-12-01T02:59:47;27.10;;;15.90;;
32894;SDS011;19251;49.484;8.260;2022-12-01T03:05:02;28.00;;;17.00;;
32894;SDS011;19251;49.484;8.260;2022-12-01T03:25:44;29.03;;;16.90;;
32894;SDS011;19251;49.484;8.260;2022-12-01T03:30:49;24.35;;;16.30;;
32894;SDS011;19251;49.484;8.260;2022-12-01T03:36:03;25.15;;;15.15;;
32894;SDS011;19251;49.484;8.260;2022-12-01T03:41:09;26.83;;;15.60;;
32894;SDS011;19251;49.484;8.260;2022-12-01T03:46:26;23.95;;;15.65;;
32894;SDS011;19251;49.484;8.260;2022-12-01T03:57:04;27.00;;;16.35;;
32894;SDS011;19251;49.484;8.260;2022-12-01T04:02:11;25.40;;;15.40;;
32894;SDS011;19251;49.484;8.260;2022-12-01T04:07:13;23.23;;;14.23;;
32894;SDS011;19251;49.484;8.260;2022-12-01T04:12:15;22.75;;;14.70;;
32894;SDS011;19251;49.484;8.260;2022-12-01T04:17:30;25.43;;;15.33;;
32894;SDS011;19251;49.484;8.260;2022-12-01T04:22:32;25.52;;;15.63;;
32894;SDS011;19251;49.484;8.260;2022-12-01T04:32:38;26.55;;;16.55;;
32894;SDS011;19251;49.484;8.260;2022-12-01T04:37:41;29.65;;;15.50;;
32894;SDS011;19251;49.484;8.260;2022-12-01T04:42:44;23.77;;;15.40;;
32894;SDS011;19251;49.484;8.260;2022-12-01T04:47:46;27.48;;;17.23;;
32894;SDS011;19251;49.484;8.260;2022-12-01T04:52:48;30.00;;;17.17;;
32894;SDS011;19251;49.484;8.260;2022-12-01T04:57:50;26.23;;;16.60;;
32894;SDS011;19251;49.484;8.260;2022-12-01T05:02:52;28.65;;;16.45;;
32894;SDS011;19251;49.484;8.260;2022-12-01T05:07:54;28.92;;;17.27;;
32894;SDS011;19251;49.484;8.260;2022-12-01T05:12:58;26.00;;;15.80;;
32894;SDS011;19251;49.484;8.260;2022-12-01T05:18:00;27.05;;;17.00;;
32894;SDS011;19251;49.484;8.260;2022-12-01T05:23:02;25.02;;;16.40;;
32894;SDS011;19251;49.484;8.260;2022-12-01T05:28:07;27.85;;;17.95;;
32894;SDS011;19251;49.484;8.260;2022-12-01T05:33:09;29.30;;;17.67;;
32894;SDS011;19251;49.484;8.260;2022-12-01T05:38:11;30.20;;;17.45;;
32894;SDS011;19251;49.484;8.260;2022-12-01T05:43:13;30.08;;;16.48;;
32894;SDS011;19251;49.484;8.260;2022-12-01T05:48:15;29.45;;;16.80;;
32894;SDS011;19251;49.484;8.260;2022-12-01T05:58:21;28.25;;;17.10;;
32894;SDS011;19251;49.484;8.260;2022-12-01T06:08:25;25.20;;;15.75;;
32894;SDS011;19251;49.484;8.260;2022-12-01T06:13:27;31.48;;;18.15;;
32894;SDS011;19251;49.484;8.260;2022-12-01T06:18:30;27.50;;;17.37;;
32894;SDS011;19251;49.484;8.260;2022-12-01T06:23:36;33.35;;;16.50;;
32894;SDS011;19251;49.484;8.260;2022-12-01T06:28:39;36.40;;;18.62;;
32894;SDS011;19251;49.484;8.260;2022-12-01T06:33:41;28.12;;;16.45;;
32894;SDS011;19251;49.484;8.260;2022-12-01T06:38:43;27.55;;;16.37;;
32894;SDS011;19251;49.484;8.260;2022-12-01T06:43:45;23.27;;;15.07;;
32894;SDS011;19251;49.484;8.260;2022-12-01T06:48:47;22.15;;;14.10;;
32894;SDS011;19251;49.484;8.260;2022-12-01T06:53:55;24.17;;;14.52;;
32894;SDS011;19251;49.484;8.260;2022-12-01T06:59:05;26.20;;;13.15;;
32894;SDS011;19251;49.484;8.260;2022-12-01T07:04:08;23.55;;;13.32;;
32894;SDS011;19251;49.484;8.260;2022-12-01T07:09:10;23.92;;;15.07;;
32894;SDS011;19251;49.484;8.260;2022-12-01T07:14:15;21.80;;;14.07;;
32894;SDS011;19251;49.484;8.260;2022-12-01T07:19:22;23.70;;;13.85;;
32894;SDS011;19251;49.484;8.260;2022-12-01T07:24:24;28.02;;;14.40;;
32894;SDS011;19251;49.484;8.260;2022-12-01T07:29:27;21.90;;;12.95;;
32894;SDS011;19251;49.484;8.260;2022-12-01T07:34:29;20.67;;;13.77;;
32894;SDS011;19251;49.484;8.260;2022-12-01T07:39:31;20.73;;;14.25;;
32894;SDS011;19251;49.484;8.260;2022-12-01T07:44:33;21.08;;;13.25;;
32894;SDS011;19251;49.484;8.260;2022-12-01T07:49:35;22.85;;;13.73;;
32894;SDS011;19251;49.484;8.260;2022-12-01T07:54:38;25.45;;;16.50;;
32894;SDS011;19251;49.484;8.260;2022-12-01T07:59:40;32.50;;;15.68;;
32894;SDS011;19251;49.484;8.260;2022-12-01T08:04:42;26.40;;;14.40;;
32894;SDS011;19251;49.484;8.260;2022-12-01T08:09:44;23.38;;;14.40;;
32894;SDS011;19251;49.484;8.260;2022-12-01T08:14:47;23.60;;;14.80;;
32894;SDS011;19251;49.484;8.260;2022-12-01T08:19:49;25.35;;;15.35;;
32894;SDS011;19251;49.484;8.260;2022-12-01T08:24:52;24.00;;;13.57;;
32894;SDS011;19251;49.484;8.260;2022-12-01T08:29:54;24.83;;;14.80;;
32894;SDS011;19251;49.484;8.260;2022-12-01T08:34:56;21.95;;;13.60;;
32894;SDS011;19251;49.484;8.260;2022-12-01T08:39:58;27.42;;;14.25;;
32894;SDS011;19251;49.484;8.260;2022-12-01T08:45:00;23.20;;;13.73;;
32894;SDS011;19251;49.484;8.260;2022-12-01T08:50:02;20.65;;;12.85;;
32894;SDS011;19251;49.484;8.260;2022-12-01T08:55:05;22.70;;;13.90;;
32894;SDS011;19251;49.484;8.260;2022-12-01T09:00:08;21.50;;;12.90;;
32894;SDS011;19251;49.484;8.260;2022-12-01T09:05:11;24.85;;;13.65;;
32894;SDS011;19251;49.484;8.260;2022-12-01T09:10:13;23.02;;;15.02;;
32894;SDS011;19251;49.484;8.260;2022-12-01T09:15:15;21.92;;;13.82;;
32894;SDS011;19251;49.484;8.260;2022-12-01T09:20:17;24.35;;;14.77;;
32894;SDS011;19251;49.484;8.260;2022-12-01T09:25:19;25.37;;;14.52;;
32894;SDS011;19251;49.484;8.260;2022-12-01T09:30:21;26.27;;;16.23;;
32894;SDS011;19251;49.484;8.260;2022-12-01T09:35:24;31.30;;;17.20;;
32894;SDS011;19251;49.484;8.260;2022-12-01T09:40:30;24.37;;;15.75;;
32894;SDS011;19251;49.484;8.260;2022-12-01T09:45:35;25.23;;;14.33;;
32894;SDS011;19251;49.484;8.260;2022-12-01T09:50:44;25.35;;;15.35;;
32894;SDS011;19251;49.484;8.260;2022-12-01T10:00:49;28.90;;;14.80;;
32894;SDS011;19251;49.484;8.260;2022-12-01T10:06:03;27.93;;;16.40;;
32894;SDS011;19251;49.484;8.260;2022-12-01T10:11:37;26.83;;;15.97;;
32894;SDS011;19251;49.484;8.260;2022-12-01T10:38:05;32.10;;;16.53;;
32894;SDS011;19251;49.484;8.260;2022-12-01T10:43:15;24.10;;;14.05;;
32894;SDS011;19251;49.484;8.260;2022-12-01T10:48:21;19.95;;;12.60;;
32894;SDS011;19251;49.484;8.260;2022-12-01T10:53:30;24.33;;;14.07;;
32894;SDS011;19251;49.484;8.260;2022-12-01T10:59:22;19.90;;;12.10;;
32894;SDS011;19251;49.484;8.260;2022-12-01T11:04:05;20.73;;;13.10;;
32894;SDS011;19251;49.484;8.260;2022-12-01T11:09:20;18.73;;;11.70;;
32894;SDS011;19251;49.484;8.260;2022-12-01T11:19:46;18.40;;;11.97;;
32894;SDS011;19251;49.484;8.260;2022-12-01T11:29:56;19.80;;;12.80;;
32894;SDS011;19251;49.484;8.260;2022-12-01T11:35:05;22.40;;;13.10;;
32894;SDS011;19251;49.484;8.260;2022-12-01T11:45:37;16.07;;;11.10;;
32894;SDS011;19251;49.484;8.260;2022-12-01T11:50:41;18.47;;;11.77;;
32894;SDS011;19251;49.484;8.260;2022-12-01T11:55:45;15.33;;;10.93;;
32894;SDS011;19251;49.484;8.260;2022-12-01T12:00:50;20.25;;;11.05;;
32894;SDS011;19251;49.484;8.260;2022-12-01T12:28:29;15.45;;;10.75;;
32894;SDS011;19251;49.484;8.260;2022-12-01T12:33:16;16.45;;;11.00;;
32894;SDS011;19251;49.484;8.260;2022-12-01T12:38:35;23.80;;;13.53;;
32894;SDS011;19251;49.484;8.260;2022-12-01T12:43:46;16.60;;;10.50;;
32894;SDS011;19251;49.484;8.260;2022-12-01T12:49:26;16.20;;;11.37;;
32894;SDS011;19251;49.484;8.260;2022-12-01T12:54:59;18.60;;;13.23;;
32894;SDS011;19251;49.484;8.260;2022-12-01T13:00:15;19.05;;;12.55;;
32894;SDS011;19251;49.484;8.260;2022-12-01T13:10:41;18.83;;;10.80;;
32894;SDS011;19251;49.484;8.260;2022-12-01T13:15:51;25.05;;;10.80;;
32894;SDS011;19251;49.484;8.260;2022-12-01T13:20:56;16.43;;;10.93;;
32894;SDS011;19251;49.484;8.260;2022-12-01T13:25:59;15.50;;;10.53;;
32894;SDS011;19251;49.484;8.260;2022-12-01T13:31:06;18.95;;;11.50;;
32894;SDS011;19251;49.484;8.260;2022-12-01T13:36:10;19.27;;;11.77;;
32894;SDS011;19251;49.484;8.260;2022-12-01T13:41:36;17.50;;;12.10;;
32894;SDS011;19251;49.484;8.260;2022-12-01T13:57:16;16.13;;;10.60;;
32894;SDS011;19251;49.484;8.260;2022-12-01T14:02:32;17.90;;;11.57;;
32894;SDS011;19251;49.484;8.260;2022-12-01T14:07:36;19.57;;;10.83;;
32894;SDS011;19251;49.484;8.260;2022-12-01T14:12:39;17.47;;;10.73;;
32894;SDS011;19251;49.484;8.260;2022-12-01T14:17:46;22.00;;;12.00;;
32894;SDS011;19251;49.484;8.260;2022-12-01T14:34:07;25.90;;;14.63;;
32894;SDS011;19251;49.484;8.260;2022-12-01T14:49:36;23.33;;;14.02;;
32894;SDS011;19251;49.484;8.260;2022-12-01T14:55:02;21.17;;;12.67;;
32894;SDS011;19251;49.484;8.260;2022-12-01T15:05:18;25.30;;;15.23;;
32894;SDS011;19251;49.484;8.260;2022-12-01T15:15:29;20.45;;;13.15;;
32894;SDS011;19251;49.484;8.260;2022-12-01T15:20:35;22.23;;;14.65;;
32894;SDS011;19251;49.484;8.260;2022-12-01T15:25:45;21.55;;;13.60;;
32894;SDS011;19251;49.484;8.260;2022-12-01T15:30:51;22.80;;;14.77;;
32894;SDS011;19251;49.484;8.260;2022-12-01T15:35:55;23.60;;;14.00;;
32894;SDS011;19251;49.484;8.260;2022-12-01T15:40:58;23.07;;;12.40;;
32894;SDS011;19251;49.484;8.260;2022-12-01T15:46:26;26.90;;;13.75;;
32894;SDS011;19251;49.484;8.260;2022-12-01T15:51:30;23.70;;;14.15;;
32894;SDS011;19251;49.484;8.260;2022-12-01T15:56:33;36.25;;;14.57;;
32894;SDS011;19251;49.484;8.260;2022-12-01T16:01:39;36.50;;;14.80;;
32894;SDS011;19251;49.484;8.260;2022-12-01T16:06:49;27.97;;;16.40;;
32894;SDS011;19251;49.484;8.260;2022-12-01T16:17:15;26.55;;;14.90;;
32894;SDS011;19251;49.484;8.260;2022-12-01T16:22:19;28.87;;;17.12;;
32894;SDS011;19251;49.484;8.260;2022-12-01T16:27:23;30.10;;;16.40;;
32894;SDS011;19251;49.484;8.260;2022-12-01T16:32:40;25.05;;;15.60;;
32894;SDS011;19251;49.484;8.260;2022-12-01T16:37:44;30.25;;;15.55;;
32894;SDS011;19251;49.484;8.260;2022-12-01T16:42:46;29.35;;;14.77;;
32894;SDS011;19251;49.484;8.260;2022-12-01T16:47:50;27.75;;;15.55;;
32894;SDS011;19251;49.484;8.260;2022-12-01T16:52:52;43.28;;;16.67;;
32894;SDS011;19251;49.484;8.260;2022-12-01T16:57:54;27.40;;;14.45;;
32894;SDS011;19251;49.484;8.260;2022-12-01T17:02:56;30.55;;;16.77;;
32894;SDS011;19251;49.484;8.260;2022-12-01T17:07:59;21.55;;;13.50;;
32894;SDS011;19251;49.484;8.260;2022-12-01T17:18:04;29.20;;;14.45;;
32894;SDS011;19251;49.484;8.260;2022-12-01T17:23:06;27.85;;;15.57;;
32894;SDS011;19251;49.484;8.260;2022-12-01T17:28:08;32.97;;;16.83;;
32894;SDS011;19251;49.484;8.260;2022-12-01T17:33:10;32.22;;;17.40;;
32894;SDS011;19251;49.484;8.260;2022-12-01T17:38:12;31.30;;;17.42;;
32894;SDS011;19251;49.484;8.260;2022-12-01T17:43:14;27.15;;;15.88;;
32894;SDS011;19251;49.484;8.260;2022-12-01T17:48:16;26.48;;;15.77;;
32894;SDS011;19251;49.484;8.260;2022-12-01T17:53:19;26.75;;;15.43;;
32894;SDS011;19251;49.484;8.260;2022-12-01T17:58:21;24.80;;;15.73;;
32894;SDS011;19251;49.484;8.260;2022-12-01T18:03:23;32.28;;;17.52;;
32894;SDS011;19251;49.484;8.260;2022-12-01T18:08:26;32.42;;;18.00;;
32894;SDS011;19251;49.484;8.260;2022-12-01T18:13:31;29.50;;;16.17;;
32894;SDS011;19251;49.484;8.260;2022-12-01T18:18:39;31.93;;;18.27;;
32894;SDS011;19251;49.484;8.260;2022-12-01T18:23:49;29.37;;;16.43;;
32894;SDS011;19251;49.484;8.260;2022-12-01T18:28:59;27.80;;;16.30;;
32894;SDS011;19251;49.484;8.260;2022-12-01T18:34:08;29.27;;;17.23;;
32894;SDS011;19251;49.484;8.260;2022-12-01T18:39:11;26.70;;;15.85;;
32894;SDS011;19251;49.484;8.260;2022-12-01T18:44:13;24.12;;;15.07;;
32894;SDS011;19251;49.484;8.260;2022-12-01T18:49:16;25.95;;;16.15;;
32894;SDS011;19251;49.484;8.260;2022-12-01T18:54:19;28.25;;;16.90;;
32894;SDS011;19251;49.484;8.260;2022-12-01T18:59:21;28.95;;;17.35;;
32894;SDS011;19251;49.484;8.260;2022-12-01T19:04:24;30.42;;;17.48;;
32894;SDS011;19251;49.484;8.260;2022-12-01T19:09:26;28.80;;;16.42;;
32894;SDS011;19251;49.484;8.260;2022-12-01T19:14:29;31.05;;;18.95;;
32894;SDS011;19251;49.484;8.260;2022-12-01T19:19:31;31.35;;;16.30;;
32894;SDS011;19251;49.484;8.260;2022-12-01T19:24:38;28.35;;;16.80;;
32894;SDS011;19251;49.484;8.260;2022-12-01T19:29:40;41.45;;;19.25;;
32894;SDS011;19251;49.484;8.260;2022-12-01T19:34:42;26.30;;;14.82;;
32894;SDS011;19251;49.484;8.260;2022-12-01T19:39:45;25.12;;;16.20;;
32894;SDS011;19251;49.484;8.260;2022-12-01T19:44:47;26.75;;;14.98;;
32894;SDS011;19251;49.484;8.260;2022-12-01T19:49:49;27.30;;;16.20;;
32894;SDS011;19251;49.484;8.260;2022-12-01T19:54:52;28.33;;;17.52;;
32894;SDS011;19251;49.484;8.260;2022-12-01T19:59:54;28.27;;;16.62;;
32894;SDS011;19251;49.484;8.260;2022-12-01T20:04:56;30.55;;;17.62;;
32894;SDS011;19251;49.484;8.260;2022-12-01T20:09:58;29.27;;;15.90;;
32894;SDS011;19251;49.484;8.260;2022-12-01T20:15:00;28.58;;;18.00;;
32894;SDS011;19251;49.484;8.260;2022-12-01T20:20:08;34.40;;;18.30;;
32894;SDS011;19251;49.484;8.260;2022-12-01T20:25:11;31.65;;;17.70;;
32894;SDS011;19251;49.484;8.260;2022-12-01T20:30:13;30.83;;;17.95;;
32894;SDS011;19251;49.484;8.260;2022-12-01T20:35:15;34.08;;;18.95;;
32894;SDS011;19251;49.484;8.260;2022-12-01T20:40:18;36.45;;;17.20;;
32894;SDS011;19251;49.484;8.260;2022-12-01T20:50:22;36.87;;;19.03;;
32894;SDS011;19251;49.484;8.260;2022-12-01T20:55:24;34.13;;;18.95;;
32894;SDS011;19251;49.484;8.260;2022-12-01T21:00:27;34.85;;;20.25;;
32894;SDS011;19251;49.484;8.260;2022-12-01T21:05:30;36.80;;;20.13;;
32894;SDS011;19251;49.484;8.260;2022-12-01T21:10:35;35.85;;;18.45;;
32894;SDS011;19251;49.484;8.260;2022-12-01T21:15:53;35.67;;;19.37;;
32894;SDS011;19251;49.484;8.260;2022-12-01T21:21:04;35.60;;;20.45;;
32894;SDS011;19251;49.484;8.260;2022-12-01T21:26:16;31.10;;;17.90;;
32894;SDS011;19251;49.484;8.260;2022-12-01T21:31:19;31.80;;;18.60;;
32894;SDS011;19251;49.484;8.260;2022-12-01T21:36:22;35.35;;;18.75;;
32894;SDS011;19251;49.484;8.260;2022-12-01T21:41:28;27.10;;;16.55;;
32894;SDS011;19251;49.484;8.260;2022-12-01T21:46:31;32.60;;;15.95;;
32894;SDS011;19251;49.484;8.260;2022-12-01T21:51:33;31.58;;;18.17;;
32894;SDS011;19251;49.484;8.260;2022-12-01T21:56:35;31.52;;;15.55;;
32894;SDS011;19251;49.484;8.260;2022-12-01T22:01:38;29.52;;;16.58;;
32894;SDS011;19251;49.484;8.260;2022-12-01T22:06:42;25.33;;;14.17;;
32894;SDS011;19251;49.484;8.260;2022-12-01T22:11:49;22.67;;;13.90;;
32894;SDS011;19251;49.484;8.260;2022-12-01T22:16:58;28.53;;;14.80;;
32894;SDS011;19251;49.484;8.260;2022-12-01T22:32:31;29.27;;;15.90;;
32894;SDS011;19251;49.484;8.260;2022-12-01T22:37:42;29.43;;;16.67;;
32894;SDS011;19251;49.484;8.260;2022-12-01T22:42:46;34.53;;;17.10;;
32894;SDS011;19251;49.484;8.260;2022-12-01T22:47:48;40.50;;;19.20;;
32894;SDS011;19251;49.484;8.260;2022-12-01T22:52:50;34.33;;;17.95;;
32894;SDS011;19251;49.484;8.260;2022-12-01T22:57:53;39.15;;;19.05;;
32894;SDS011;19251;49.484;8.260;2022-12-01T23:02:55;36.42;;;22.40;;
32894;SDS011;19251;49.484;8.260;2022-12-01T23:07:59;29.27;;;17.60;;
32894;SDS011;19251;49.484;8.260;2022-12-01T23:13:22;30.90;;;16.93;;
32894;SDS011;19251;49.484;8.260;2022-12-01T23:18:28;35.85;;;18.15;;
32894;SDS011;19251;49.484;8.260;2022-12-01T23:23:33;30.35;;;16.95;;
32894;SDS011;19251;49.484;8.260;2022-12-01T23:28:36;35.13;;;16.63;;
32894;SDS011;19251;49.484;8.260;2022-12-01T23:33:41;34.45;;;17.60;;
32894;SDS011;19251;49.484;8.260;2022-12-01T23:38:44;37.15;;;18.50;;
32894;SDS011;19251;49.484;8.260;2022-12-01T23:43:47;36.57;;;19.73;;
32894;SDS011;19251;49.484;8.260;2022-12-01T23:54:19;36.90;;;18.10;;
32894;SDS011;19251;49.484;8.260;2022-12-01T23:59:26;28.93;;;15.33;;
